RYR64E LEPA-EDLV
Flight info
| Callsign | RYR64E |
|---|---|
| Flight time | 2h 1m |
| Altitude | 34000 |
| Route | MEROS8B MEROS DCT LAPIT DCT CHELY N853 LUMAS DCT SOSUR DCT SECON DCT ODIXU DCT MAXIR DCT LUSOL DCT BODRU DCT OKTET DCT IRMAR DCT KINES DCT VANAS DCT MOBLO DCT UBIMA DCT GILIR DCT PENDU DCT IXILU DCT GIVOR DCT SORAL DCT IBERA N853 DIK/N0463F310 N853 ARCKY T853 IBESA T474 LAA DCT |
| Aircraft | B738/M-SDE2E3FGHIRWXY/LB1 |
Departure
| Time | 2026-04-30 19:59 |
|---|---|
| Airport | Palma de Mallorca Airport (LEPA) |
Arrival
| Time | 2026-04-30 22:00 |
|---|---|
| Airport | Weeze (Niederrhein) Airport (EDLV) |
| Time | Latitude | Longitude | Altitude | Speed | Heading |
|---|---|---|---|---|---|
| 2026-04-30 19:19 | 39.54756 | 2.73628 | 35 ft | 0 kts | 58° |
| 2026-04-30 19:47 | 39.54751 | 2.73617 | 36 ft | 4 kts | 66° |
| 2026-04-30 19:48 | 39.54745 | 2.73585 | 34 ft | 4 kts | 100° |
| 2026-04-30 19:48 | 39.54755 | 2.73553 | 36 ft | 4 kts | 127° |
| 2026-04-30 19:48 | 39.54773 | 2.73529 | 35 ft | 4 kts | 147° |
| 2026-04-30 19:48 | 39.54777 | 2.73525 | 36 ft | 1 kts | 149° |
| 2026-04-30 19:51 | 39.54777 | 2.73526 | 36 ft | 0 kts | 149° |
| 2026-04-30 19:51 | 39.54772 | 2.73529 | 35 ft | 1 kts | 149° |
| 2026-04-30 19:52 | 39.54756 | 2.73542 | 35 ft | 4 kts | 149° |
| 2026-04-30 19:52 | 39.54722 | 2.73568 | 36 ft | 7 kts | 149° |
| 2026-04-30 19:52 | 39.54671 | 2.73607 | 37 ft | 10 kts | 150° |
| 2026-04-30 19:52 | 39.54603 | 2.73634 | 37 ft | 11 kts | 159° |
| 2026-04-30 19:53 | 39.54538 | 2.73595 | 37 ft | 12 kts | 236° |
| 2026-04-30 19:53 | 39.54490 | 2.73496 | 37 ft | 14 kts | 238° |
| 2026-04-30 19:53 | 39.54435 | 2.73379 | 37 ft | 16 kts | 238° |
| 2026-04-30 19:53 | 39.54374 | 2.73251 | 35 ft | 17 kts | 239° |
| 2026-04-30 19:54 | 39.54324 | 2.73143 | 37 ft | 13 kts | 238° |
| 2026-04-30 19:54 | 39.54314 | 2.73122 | 37 ft | 2 kts | 238° |
| 2026-04-30 19:54 | 39.54302 | 2.73096 | 37 ft | 5 kts | 238° |
| 2026-04-30 19:54 | 39.54275 | 2.73057 | 37 ft | 7 kts | 213° |
| 2026-04-30 19:55 | 39.54242 | 2.73052 | 37 ft | 5 kts | 159° |
| 2026-04-30 19:55 | 39.54237 | 2.73056 | 37 ft | 1 kts | 150° |
| 2026-04-30 19:55 | 39.54236 | 2.73057 | 37 ft | 0 kts | 147° |
| 2026-04-30 19:56 | 39.54228 | 2.73066 | 35 ft | 5 kts | 137° |
| 2026-04-30 19:56 | 39.54213 | 2.73135 | 37 ft | 10 kts | 87° |
| 2026-04-30 19:56 | 39.54212 | 2.73241 | 37 ft | 14 kts | 90° |
| 2026-04-30 19:57 | 39.54221 | 2.73369 | 36 ft | 13 kts | 63° |
| 2026-04-30 19:57 | 39.54230 | 2.73388 | 36 ft | 0 kts | 58° |
| 2026-04-30 19:58 | 39.54230 | 2.73389 | 37 ft | 1 kts | 58° |
| 2026-04-30 19:58 | 39.54295 | 2.73527 | 37 ft | 56 kts | 59° |
| 2026-04-30 19:58 | 39.54647 | 2.74269 | 37 ft | 137 kts | 58° |
| 2026-04-30 19:58 | 39.55250 | 2.75541 | 353 ft | 182 kts | 59° |
| 2026-04-30 19:59 | 39.55955 | 2.77033 | 1179 ft | 198 kts | 59° |
| 2026-04-30 19:59 | 39.56620 | 2.78537 | 2420 ft | 185 kts | 62° |
| 2026-04-30 19:59 | 39.57873 | 2.81274 | 3894 ft | 182 kts | 57° |
| 2026-04-30 20:00 | 39.58584 | 2.82728 | 4005 ft | 205 kts | 57° |
| 2026-04-30 20:00 | 39.59381 | 2.84384 | 4028 ft | 227 kts | 57° |
| 2026-04-30 20:00 | 39.60241 | 2.86195 | 3997 ft | 242 kts | 58° |
| 2026-04-30 20:00 | 39.61159 | 2.88142 | 4019 ft | 263 kts | 58° |
| 2026-04-30 20:01 | 39.63085 | 2.92294 | 5200 ft | 272 kts | 58° |
| 2026-04-30 20:01 | 39.64050 | 2.94430 | 5811 ft | 276 kts | 58° |
| 2026-04-30 20:01 | 39.65030 | 2.96596 | 6401 ft | 281 kts | 58° |
| 2026-04-30 20:02 | 39.67026 | 3.01038 | 7596 ft | 289 kts | 59° |
| 2026-04-30 20:02 | 39.68019 | 3.03291 | 8204 ft | 293 kts | 59° |
| 2026-04-30 20:03 | 39.70063 | 3.08003 | 9303 ft | 308 kts | 60° |
| 2026-04-30 20:03 | 39.71101 | 3.10465 | 9976 ft | 311 kts | 61° |
| 2026-04-30 20:03 | 39.72134 | 3.12978 | 10458 ft | 322 kts | 61° |
| 2026-04-30 20:03 | 39.73215 | 3.15632 | 10624 ft | 343 kts | 62° |
| 2026-04-30 20:04 | 39.74364 | 3.18455 | 10780 ft | 363 kts | 62° |
| 2026-04-30 20:04 | 39.75572 | 3.21425 | 10924 ft | 382 kts | 62° |
| 2026-04-30 20:04 | 39.76838 | 3.24542 | 11179 ft | 395 kts | 62° |
| 2026-04-30 20:05 | 39.80016 | 3.30442 | 12185 ft | 402 kts | 47° |
| 2026-04-30 20:05 | 39.81895 | 3.33165 | 12763 ft | 405 kts | 46° |
| 2026-04-30 20:05 | 39.85689 | 3.38622 | 13873 ft | 413 kts | 47° |
| 2026-04-30 20:06 | 39.87606 | 3.41428 | 14399 ft | 416 kts | 47° |
| 2026-04-30 20:06 | 39.89519 | 3.44264 | 14938 ft | 419 kts | 47° |
| 2026-04-30 20:06 | 39.91444 | 3.47140 | 15090 ft | 421 kts | 47° |
| 2026-04-30 20:06 | 39.93374 | 3.50043 | 15456 ft | 426 kts | 47° |
| 2026-04-30 20:07 | 39.95313 | 3.52969 | 16085 ft | 426 kts | 47° |
| 2026-04-30 20:07 | 39.97255 | 3.55905 | 16701 ft | 428 kts | 47° |
| 2026-04-30 20:07 | 40.01177 | 3.61842 | 17660 ft | 437 kts | 47° |
| 2026-04-30 20:08 | 40.03158 | 3.64844 | 18162 ft | 440 kts | 47° |
| 2026-04-30 20:08 | 40.05151 | 3.67868 | 18635 ft | 443 kts | 47° |
| 2026-04-30 20:08 | 40.07178 | 3.70946 | 19078 ft | 446 kts | 47° |
| 2026-04-30 20:08 | 40.09205 | 3.74026 | 19520 ft | 449 kts | 47° |
| 2026-04-30 20:09 | 40.11215 | 3.77085 | 19960 ft | 451 kts | 47° |
| 2026-04-30 20:09 | 40.13265 | 3.80207 | 20405 ft | 454 kts | 47° |
| 2026-04-30 20:09 | 40.17401 | 3.86513 | 21236 ft | 460 kts | 47° |
| 2026-04-30 20:10 | 40.21582 | 3.92905 | 22042 ft | 465 kts | 47° |
| 2026-04-30 20:10 | 40.23690 | 3.96132 | 22419 ft | 468 kts | 47° |
| 2026-04-30 20:10 | 40.25807 | 3.99375 | 22792 ft | 470 kts | 47° |
| 2026-04-30 20:11 | 40.30017 | 4.05836 | 23507 ft | 475 kts | 47° |
| 2026-04-30 20:11 | 40.32167 | 4.09141 | 23822 ft | 478 kts | 47° |
| 2026-04-30 20:11 | 40.34331 | 4.12473 | 24123 ft | 480 kts | 47° |
| 2026-04-30 20:12 | 40.38651 | 4.19133 | 24703 ft | 484 kts | 47° |
| 2026-04-30 20:12 | 40.40844 | 4.22519 | 24975 ft | 487 kts | 47° |
| 2026-04-30 20:12 | 40.43048 | 4.25926 | 25232 ft | 490 kts | 47° |
| 2026-04-30 20:13 | 40.45261 | 4.29350 | 25506 ft | 492 kts | 47° |
| 2026-04-30 20:13 | 40.47486 | 4.32781 | 25784 ft | 493 kts | 45° |
| 2026-04-30 20:13 | 40.50067 | 4.35710 | 25992 ft | 489 kts | 27° |
| 2026-04-30 20:13 | 40.53127 | 4.37543 | 26268 ft | 482 kts | 12° |
| 2026-04-30 20:14 | 40.56392 | 4.38442 | 26566 ft | 478 kts | 5° |
| 2026-04-30 20:14 | 40.59677 | 4.39152 | 26803 ft | 480 kts | 5° |
| 2026-04-30 20:14 | 40.62988 | 4.39859 | 27027 ft | 483 kts | 5° |
| 2026-04-30 20:14 | 40.66306 | 4.40592 | 27355 ft | 483 kts | 5° |
| 2026-04-30 20:15 | 40.69566 | 4.41341 | 27744 ft | 481 kts | 6° |
| 2026-04-30 20:15 | 40.72857 | 4.42117 | 28144 ft | 480 kts | 6° |
| 2026-04-30 20:15 | 40.76143 | 4.42902 | 28494 ft | 479 kts | 6° |
| 2026-04-30 20:15 | 40.79428 | 4.43689 | 28829 ft | 479 kts | 6° |
| 2026-04-30 20:16 | 40.82720 | 4.44478 | 29205 ft | 479 kts | 6° |
| 2026-04-30 20:16 | 40.85987 | 4.45260 | 29631 ft | 477 kts | 5° |
| 2026-04-30 20:16 | 40.89246 | 4.46040 | 30048 ft | 475 kts | 5° |
| 2026-04-30 20:16 | 40.92499 | 4.46824 | 30368 ft | 475 kts | 6° |
| 2026-04-30 20:17 | 40.95754 | 4.47619 | 30634 ft | 475 kts | 6° |
| 2026-04-30 20:17 | 40.99008 | 4.48417 | 30922 ft | 475 kts | 6° |
| 2026-04-30 20:17 | 41.02246 | 4.49212 | 31233 ft | 474 kts | 6° |
| 2026-04-30 20:17 | 41.05483 | 4.50006 | 31558 ft | 473 kts | 6° |
| 2026-04-30 20:18 | 41.08718 | 4.50799 | 31931 ft | 470 kts | 5° |
| 2026-04-30 20:18 | 41.11934 | 4.51585 | 32249 ft | 469 kts | 5° |
| 2026-04-30 20:18 | 41.15146 | 4.52368 | 32495 ft | 470 kts | 5° |
| 2026-04-30 20:18 | 41.18366 | 4.53153 | 32745 ft | 470 kts | 5° |
| 2026-04-30 20:19 | 41.21539 | 4.53928 | 33030 ft | 469 kts | 6° |
| 2026-04-30 20:19 | 41.24752 | 4.54714 | 33333 ft | 468 kts | 6° |
| 2026-04-30 20:19 | 41.27959 | 4.55500 | 33650 ft | 467 kts | 5° |
| 2026-04-30 20:19 | 41.31150 | 4.56284 | 33975 ft | 465 kts | 5° |
| 2026-04-30 20:20 | 41.34342 | 4.57067 | 34133 ft | 468 kts | 5° |
| 2026-04-30 20:20 | 41.40754 | 4.58643 | 34122 ft | 469 kts | 5° |
| 2026-04-30 20:21 | 41.47138 | 4.60219 | 34135 ft | 463 kts | 5° |
| 2026-04-30 20:21 | 41.53445 | 4.61778 | 34123 ft | 460 kts | 5° |
| 2026-04-30 20:22 | 41.59694 | 4.63323 | 34135 ft | 458 kts | 5° |
| 2026-04-30 20:22 | 41.65970 | 4.64878 | 34142 ft | 457 kts | 5° |
| 2026-04-30 20:23 | 41.72226 | 4.66432 | 34142 ft | 458 kts | 5° |
| 2026-04-30 20:23 | 41.78421 | 4.68488 | 34143 ft | 463 kts | 11° |
| 2026-04-30 20:24 | 41.84596 | 4.71030 | 34142 ft | 464 kts | 11° |
| 2026-04-30 20:24 | 41.90785 | 4.73576 | 34158 ft | 465 kts | 11° |
| 2026-04-30 20:25 | 42.00086 | 4.77294 | 34146 ft | 466 kts | 10° |
| 2026-04-30 20:26 | 42.09431 | 4.81005 | 34156 ft | 466 kts | 10° |
| 2026-04-30 20:26 | 42.18769 | 4.84729 | 34157 ft | 466 kts | 10° |
| 2026-04-30 20:27 | 42.31131 | 4.89680 | 34174 ft | 463 kts | 10° |
| 2026-04-30 20:28 | 42.43473 | 4.94642 | 34170 ft | 461 kts | 10° |
| 2026-04-30 20:30 | 42.58722 | 5.00790 | 34178 ft | 458 kts | 10° |
| 2026-04-30 20:31 | 42.77027 | 5.08054 | 34175 ft | 455 kts | 10° |
| 2026-04-30 20:32 | 42.85334 | 5.14482 | 34186 ft | 479 kts | 42° |
| 2026-04-30 20:32 | 42.89490 | 5.21686 | 34189 ft | 485 kts | 48° |
| 2026-04-30 20:33 | 42.95581 | 5.32747 | 34177 ft | 486 kts | 48° |
| 2026-04-30 20:34 | 43.01746 | 5.43689 | 34176 ft | 483 kts | 48° |
| 2026-04-30 20:35 | 43.07857 | 5.54551 | 34178 ft | 481 kts | 48° |
| 2026-04-30 20:35 | 43.14230 | 5.65072 | 34181 ft | 476 kts | 44° |
| 2026-04-30 20:36 | 43.18683 | 5.71768 | 34196 ft | 475 kts | 43° |
| 2026-04-30 20:37 | 43.25304 | 5.81899 | 34189 ft | 474 kts | 44° |
| 2026-04-30 20:37 | 43.29678 | 5.88678 | 34199 ft | 474 kts | 44° |
| 2026-04-30 20:38 | 43.34042 | 5.95450 | 34189 ft | 473 kts | 44° |
| 2026-04-30 20:38 | 43.38571 | 6.01704 | 34194 ft | 463 kts | 28° |
| 2026-04-30 20:39 | 43.44422 | 6.04753 | 34204 ft | 444 kts | 1° |
| 2026-04-30 20:39 | 43.47487 | 6.05037 | 34230 ft | 441 kts | 359° |
| 2026-04-30 20:40 | 43.56670 | 6.05788 | 34206 ft | 443 kts | 360° |
| 2026-04-30 20:40 | 43.62837 | 6.06384 | 34202 ft | 445 kts | 0° |
| 2026-04-30 20:41 | 43.72113 | 6.07305 | 34218 ft | 446 kts | 0° |
| 2026-04-30 20:41 | 43.77244 | 6.08320 | 34223 ft | 452 kts | 11° |
| 2026-04-30 20:42 | 43.83101 | 6.11675 | 34226 ft | 459 kts | 22° |
| 2026-04-30 20:43 | 43.91684 | 6.17697 | 34223 ft | 461 kts | 23° |
| 2026-04-30 20:43 | 43.97428 | 6.21663 | 34222 ft | 461 kts | 22° |
| 2026-04-30 20:44 | 44.06065 | 6.27582 | 34214 ft | 461 kts | 23° |
| 2026-04-30 20:45 | 44.17547 | 6.35484 | 34221 ft | 461 kts | 23° |
| 2026-04-30 20:45 | 44.23294 | 6.39454 | 34227 ft | 460 kts | 23° |
| 2026-04-30 20:46 | 44.34774 | 6.47422 | 34229 ft | 461 kts | 24° |
| 2026-04-30 20:47 | 44.43380 | 6.53420 | 34230 ft | 461 kts | 24° |
| 2026-04-30 20:48 | 44.51962 | 6.59410 | 34248 ft | 458 kts | 24° |
| 2026-04-30 20:48 | 44.57667 | 6.63375 | 34251 ft | 456 kts | 24° |
| 2026-04-30 20:49 | 44.63353 | 6.67337 | 34259 ft | 455 kts | 24° |
| 2026-04-30 20:50 | 44.71810 | 6.73251 | 34270 ft | 454 kts | 24° |
| 2026-04-30 20:50 | 44.77493 | 6.77086 | 34263 ft | 451 kts | 18° |
| 2026-04-30 20:51 | 44.83582 | 6.78828 | 34272 ft | 446 kts | 0° |
| 2026-04-30 20:51 | 44.92849 | 6.78250 | 34276 ft | 444 kts | 355° |
| 2026-04-30 20:52 | 44.99025 | 6.77770 | 34285 ft | 444 kts | 356° |
| 2026-04-30 20:53 | 45.08255 | 6.77144 | 34285 ft | 445 kts | 356° |
| 2026-04-30 20:53 | 45.14444 | 6.76738 | 34277 ft | 445 kts | 356° |
| 2026-04-30 20:54 | 45.23739 | 6.76123 | 34271 ft | 445 kts | 357° |
| 2026-04-30 20:55 | 45.33020 | 6.75506 | 34257 ft | 445 kts | 357° |
| 2026-04-30 20:55 | 45.39203 | 6.75110 | 34255 ft | 444 kts | 357° |
| 2026-04-30 20:56 | 45.48451 | 6.74520 | 34257 ft | 444 kts | 357° |
| 2026-04-30 20:57 | 45.57702 | 6.73890 | 34255 ft | 444 kts | 358° |
| 2026-04-30 20:57 | 45.63843 | 6.73470 | 34251 ft | 444 kts | 358° |
| 2026-04-30 20:58 | 45.73106 | 6.72839 | 34236 ft | 444 kts | 358° |
| 2026-04-30 20:58 | 45.79314 | 6.72416 | 34238 ft | 444 kts | 359° |
| 2026-04-30 20:59 | 45.88538 | 6.71779 | 34235 ft | 444 kts | 358° |
| 2026-04-30 21:00 | 46.00861 | 6.70920 | 34231 ft | 444 kts | 359° |
| 2026-04-30 21:01 | 46.10138 | 6.70271 | 34219 ft | 447 kts | 358° |
| 2026-04-30 21:01 | 46.16247 | 6.68526 | 34228 ft | 450 kts | 343° |
| 2026-04-30 21:02 | 46.19221 | 6.67061 | 34229 ft | 451 kts | 343° |
| 2026-04-30 21:02 | 46.25119 | 6.64092 | 34208 ft | 452 kts | 343° |
| 2026-04-30 21:03 | 46.31062 | 6.61140 | 34212 ft | 451 kts | 343° |
| 2026-04-30 21:03 | 46.37003 | 6.58227 | 34219 ft | 450 kts | 343° |
| 2026-04-30 21:04 | 46.42944 | 6.55322 | 34220 ft | 450 kts | 344° |
| 2026-04-30 21:04 | 46.51801 | 6.50979 | 34226 ft | 449 kts | 344° |
| 2026-04-30 21:05 | 46.57727 | 6.48063 | 34229 ft | 449 kts | 344° |
| 2026-04-30 21:05 | 46.63644 | 6.45145 | 34225 ft | 449 kts | 343° |
| 2026-04-30 21:06 | 46.69590 | 6.42205 | 34237 ft | 451 kts | 343° |
| 2026-04-30 21:06 | 46.75510 | 6.39272 | 34230 ft | 453 kts | 343° |
| 2026-04-30 21:07 | 46.81473 | 6.36310 | 34232 ft | 454 kts | 344° |
| 2026-04-30 21:07 | 46.87476 | 6.33321 | 34224 ft | 455 kts | 344° |
| 2026-04-30 21:08 | 46.93472 | 6.30328 | 34226 ft | 456 kts | 344° |
| 2026-04-30 21:08 | 46.99446 | 6.27339 | 34221 ft | 456 kts | 344° |
| 2026-04-30 21:09 | 47.05454 | 6.24325 | 34206 ft | 456 kts | 343° |
| 2026-04-30 21:09 | 47.11292 | 6.20551 | 34214 ft | 459 kts | 336° |
| 2026-04-30 21:10 | 47.16955 | 6.16322 | 34198 ft | 459 kts | 336° |
| 2026-04-30 21:10 | 47.22673 | 6.12132 | 34195 ft | 459 kts | 336° |
| 2026-04-30 21:11 | 47.28429 | 6.07983 | 34195 ft | 460 kts | 337° |
| 2026-04-30 21:11 | 47.34310 | 6.04306 | 34192 ft | 457 kts | 348° |
| 2026-04-30 21:12 | 47.40567 | 6.03227 | 34204 ft | 451 kts | 4° |
| 2026-04-30 21:12 | 47.46841 | 6.03452 | 34194 ft | 452 kts | 5° |
| 2026-04-30 21:13 | 47.53125 | 6.03661 | 34202 ft | 452 kts | 4° |
| 2026-04-30 21:13 | 47.59417 | 6.03804 | 34208 ft | 452 kts | 4° |
| 2026-04-30 21:14 | 47.65715 | 6.03929 | 34205 ft | 452 kts | 4° |
| 2026-04-30 21:14 | 47.71966 | 6.04059 | 34212 ft | 451 kts | 4° |
| 2026-04-30 21:15 | 47.78116 | 6.05443 | 34227 ft | 445 kts | 17° |
| 2026-04-30 21:15 | 47.84101 | 6.07778 | 34220 ft | 444 kts | 18° |
| 2026-04-30 21:16 | 47.90090 | 6.10109 | 34221 ft | 444 kts | 17° |
| 2026-04-30 21:16 | 47.96083 | 6.12392 | 34227 ft | 444 kts | 17° |
| 2026-04-30 21:17 | 48.02077 | 6.14656 | 34236 ft | 444 kts | 17° |
| 2026-04-30 21:17 | 48.08078 | 6.16926 | 34233 ft | 445 kts | 17° |
| 2026-04-30 21:18 | 48.14077 | 6.19201 | 34244 ft | 445 kts | 17° |
| 2026-04-30 21:18 | 48.20031 | 6.21465 | 34238 ft | 445 kts | 17° |
| 2026-04-30 21:19 | 48.26040 | 6.23757 | 34238 ft | 445 kts | 17° |
| 2026-04-30 21:19 | 48.32052 | 6.26054 | 34243 ft | 445 kts | 17° |
| 2026-04-30 21:20 | 48.38060 | 6.28357 | 34238 ft | 446 kts | 17° |
| 2026-04-30 21:20 | 48.44073 | 6.30667 | 34250 ft | 446 kts | 17° |
| 2026-04-30 21:21 | 48.50094 | 6.32985 | 34239 ft | 447 kts | 17° |
| 2026-04-30 21:22 | 48.59087 | 6.36459 | 34264 ft | 447 kts | 17° |
| 2026-04-30 21:23 | 48.71351 | 6.39872 | 34267 ft | 451 kts | 6° |
| 2026-04-30 21:23 | 48.80740 | 6.40651 | 34265 ft | 452 kts | 6° |
| 2026-04-30 21:24 | 48.87018 | 6.41263 | 34270 ft | 452 kts | 7° |
| 2026-04-30 21:24 | 48.93285 | 6.41914 | 34264 ft | 452 kts | 7° |
| 2026-04-30 21:25 | 49.02704 | 6.42895 | 34268 ft | 452 kts | 7° |
| 2026-04-30 21:26 | 49.11083 | 6.43508 | 34260 ft | 455 kts | 359° |
| 2026-04-30 21:27 | 49.20402 | 6.40248 | 34282 ft | 460 kts | 347° |
| 2026-04-30 21:27 | 49.27570 | 6.37161 | 34279 ft | 460 kts | 347° |
| 2026-04-30 21:28 | 49.35833 | 6.33719 | 34287 ft | 459 kts | 348° |
| 2026-04-30 21:29 | 49.45056 | 6.29895 | 34292 ft | 459 kts | 348° |
| 2026-04-30 21:30 | 49.60500 | 6.23531 | 34293 ft | 460 kts | 347° |
| 2026-04-30 21:31 | 49.75987 | 6.17178 | 34299 ft | 461 kts | 347° |
| 2026-04-30 21:32 | 49.85268 | 6.13415 | 34295 ft | 461 kts | 351° |
| 2026-04-30 21:32 | 49.91617 | 6.12825 | 34315 ft | 456 kts | 3° |
| 2026-04-30 21:33 | 50.01144 | 6.13045 | 34308 ft | 457 kts | 2° |
| 2026-04-30 21:34 | 50.05250 | 6.13090 | 34301 ft | 456 kts | 2° |
| 2026-04-30 21:34 | 50.09728 | 6.13112 | 34292 ft | 442 kts | 2° |
| 2026-04-30 21:35 | 50.15812 | 6.13135 | 34307 ft | 439 kts | 2° |
| 2026-04-30 21:35 | 50.21914 | 6.13163 | 34307 ft | 437 kts | 2° |
| 2026-04-30 21:36 | 50.27973 | 6.13529 | 34293 ft | 434 kts | 12° |
| 2026-04-30 21:37 | 50.36051 | 6.19324 | 34326 ft | 426 kts | 36° |
| 2026-04-30 21:37 | 50.38507 | 6.21941 | 34299 ft | 427 kts | 36° |
| 2026-04-30 21:37 | 50.43394 | 6.27090 | 34230 ft | 430 kts | 35° |
| 2026-04-30 21:38 | 50.45869 | 6.29651 | 33929 ft | 422 kts | 35° |
| 2026-04-30 21:38 | 50.48322 | 6.32166 | 33388 ft | 420 kts | 33° |
| 2026-04-30 21:38 | 50.50896 | 6.34281 | 32917 ft | 419 kts | 24° |
| 2026-04-30 21:38 | 50.53641 | 6.35869 | 32186 ft | 418 kts | 21° |
| 2026-04-30 21:39 | 50.56416 | 6.37377 | 30832 ft | 428 kts | 20° |
| 2026-04-30 21:39 | 50.59263 | 6.38918 | 29307 ft | 437 kts | 20° |
| 2026-04-30 21:39 | 50.62156 | 6.40511 | 27768 ft | 444 kts | 21° |
| 2026-04-30 21:39 | 50.65087 | 6.42151 | 26663 ft | 443 kts | 22° |
| 2026-04-30 21:40 | 50.67933 | 6.43757 | 26082 ft | 430 kts | 22° |
| 2026-04-30 21:40 | 50.70710 | 6.45331 | 25500 ft | 417 kts | 22° |
| 2026-04-30 21:40 | 50.73392 | 6.46851 | 24934 ft | 415 kts | 21° |
| 2026-04-30 21:40 | 50.76282 | 6.47717 | 24339 ft | 436 kts | 1° |
| 2026-04-30 21:41 | 50.79359 | 6.46882 | 23644 ft | 464 kts | 342° |
| 2026-04-30 21:41 | 50.82181 | 6.44362 | 22724 ft | 470 kts | 320° |
| 2026-04-30 21:41 | 50.84412 | 6.40617 | 22050 ft | 465 kts | 311° |
| 2026-04-30 21:41 | 50.86472 | 6.36705 | 21350 ft | 460 kts | 311° |
| 2026-04-30 21:42 | 50.88528 | 6.32842 | 20690 ft | 455 kts | 311° |
| 2026-04-30 21:42 | 50.90598 | 6.29067 | 20046 ft | 451 kts | 313° |
| 2026-04-30 21:42 | 50.92674 | 6.25356 | 19420 ft | 446 kts | 314° |
| 2026-04-30 21:42 | 50.94993 | 6.22172 | 18791 ft | 439 kts | 329° |
| 2026-04-30 21:43 | 50.97667 | 6.19973 | 18086 ft | 432 kts | 341° |
| 2026-04-30 21:43 | 51.00528 | 6.18713 | 17418 ft | 424 kts | 354° |
| 2026-04-30 21:43 | 51.03392 | 6.18077 | 16804 ft | 418 kts | 355° |
| 2026-04-30 21:43 | 51.06262 | 6.17463 | 16190 ft | 414 kts | 355° |
| 2026-04-30 21:44 | 51.09105 | 6.16834 | 15587 ft | 411 kts | 354° |
| 2026-04-30 21:44 | 51.11922 | 6.16186 | 14996 ft | 407 kts | 354° |
| 2026-04-30 21:44 | 51.14722 | 6.15524 | 14391 ft | 405 kts | 354° |
| 2026-04-30 21:44 | 51.17495 | 6.14860 | 13753 ft | 402 kts | 353° |
| 2026-04-30 21:45 | 51.20241 | 6.14198 | 13144 ft | 399 kts | 353° |
| 2026-04-30 21:45 | 51.22988 | 6.13537 | 12554 ft | 395 kts | 353° |
| 2026-04-30 21:45 | 51.25716 | 6.13091 | 11950 ft | 389 kts | 4° |
| 2026-04-30 21:45 | 51.28303 | 6.13872 | 11431 ft | 379 kts | 24° |
| 2026-04-30 21:46 | 51.30573 | 6.15756 | 11331 ft | 358 kts | 38° |
| 2026-04-30 21:46 | 51.32505 | 6.18127 | 11189 ft | 344 kts | 41° |
| 2026-04-30 21:46 | 51.34342 | 6.20476 | 11035 ft | 332 kts | 42° |
| 2026-04-30 21:46 | 51.36115 | 6.22733 | 10907 ft | 321 kts | 41° |
| 2026-04-30 21:47 | 51.37840 | 6.24899 | 10780 ft | 311 kts | 41° |
| 2026-04-30 21:47 | 51.39520 | 6.26990 | 10658 ft | 301 kts | 41° |
| 2026-04-30 21:47 | 51.41153 | 6.29017 | 10536 ft | 292 kts | 41° |
| 2026-04-30 21:47 | 51.42742 | 6.30987 | 10416 ft | 283 kts | 41° |
| 2026-04-30 21:48 | 51.44386 | 6.32659 | 10248 ft | 282 kts | 23° |
| 2026-04-30 21:48 | 51.46313 | 6.33024 | 9968 ft | 288 kts | 354° |
| 2026-04-30 21:48 | 51.48217 | 6.31945 | 9698 ft | 289 kts | 330° |
| 2026-04-30 21:48 | 51.49828 | 6.30093 | 9442 ft | 288 kts | 324° |
| 2026-04-30 21:49 | 51.51409 | 6.28120 | 9143 ft | 287 kts | 323° |
| 2026-04-30 21:49 | 51.52989 | 6.26139 | 8860 ft | 287 kts | 324° |
| 2026-04-30 21:49 | 51.54567 | 6.24187 | 8569 ft | 286 kts | 323° |
| 2026-04-30 21:49 | 51.56148 | 6.22248 | 8289 ft | 285 kts | 324° |
| 2026-04-30 21:50 | 51.57729 | 6.20319 | 8012 ft | 285 kts | 324° |
| 2026-04-30 21:50 | 51.59306 | 6.18394 | 7722 ft | 285 kts | 324° |
| 2026-04-30 21:50 | 51.60714 | 6.16152 | 7412 ft | 286 kts | 302° |
| 2026-04-30 21:50 | 51.61712 | 6.13409 | 7162 ft | 284 kts | 299° |
| 2026-04-30 21:51 | 51.62686 | 6.10649 | 6873 ft | 284 kts | 299° |
| 2026-04-30 21:51 | 51.63669 | 6.07885 | 6595 ft | 284 kts | 299° |
| 2026-04-30 21:51 | 51.64655 | 6.05140 | 6317 ft | 283 kts | 300° |
| 2026-04-30 21:51 | 51.65646 | 6.02405 | 6025 ft | 282 kts | 300° |
| 2026-04-30 21:52 | 51.66636 | 5.99681 | 5746 ft | 281 kts | 300° |
| 2026-04-30 21:52 | 51.67638 | 5.96924 | 5262 ft | 289 kts | 300° |
| 2026-04-30 21:52 | 51.68605 | 5.94242 | 5187 ft | 269 kts | 297° |
| 2026-04-30 21:52 | 51.69079 | 5.91484 | 4989 ft | 247 kts | 269° |
| 2026-04-30 21:53 | 51.69121 | 5.88830 | 4878 ft | 228 kts | 268° |
| 2026-04-30 21:53 | 51.69166 | 5.86368 | 4761 ft | 212 kts | 265° |
| 2026-04-30 21:53 | 51.68785 | 5.84254 | 4613 ft | 184 kts | 220° |
| 2026-04-30 21:53 | 51.67759 | 5.83469 | 4583 ft | 161 kts | 172° |
| 2026-04-30 21:54 | 51.66538 | 5.83532 | 4097 ft | 190 kts | 175° |
| 2026-04-30 21:54 | 51.65190 | 5.83513 | 3643 ft | 189 kts | 173° |
| 2026-04-30 21:54 | 51.63983 | 5.83824 | 3519 ft | 164 kts | 156° |
| 2026-04-30 21:54 | 51.63059 | 5.84672 | 3430 ft | 145 kts | 139° |
| 2026-04-30 21:55 | 51.62367 | 5.85844 | 3314 ft | 146 kts | 128° |
| 2026-04-30 21:55 | 51.61832 | 5.87269 | 3146 ft | 151 kts | 119° |
| 2026-04-30 21:55 | 51.61423 | 5.88799 | 2944 ft | 143 kts | 118° |
| 2026-04-30 21:55 | 51.61088 | 5.90205 | 2759 ft | 128 kts | 109° |
| 2026-04-30 21:56 | 51.60935 | 5.91597 | 2614 ft | 127 kts | 105° |
| 2026-04-30 21:56 | 51.60816 | 5.92987 | 2541 ft | 125 kts | 103° |
| 2026-04-30 21:56 | 51.60735 | 5.94398 | 2334 ft | 126 kts | 101° |
| 2026-04-30 21:56 | 51.60683 | 5.95772 | 2165 ft | 123 kts | 101° |
| 2026-04-30 21:57 | 51.60639 | 5.97156 | 1998 ft | 125 kts | 100° |
| 2026-04-30 21:57 | 51.60601 | 5.98565 | 1830 ft | 123 kts | 99° |
| 2026-04-30 21:57 | 51.60567 | 5.99899 | 1666 ft | 119 kts | 99° |
| 2026-04-30 21:57 | 51.60535 | 6.01234 | 1514 ft | 121 kts | 99° |
| 2026-04-30 21:58 | 51.60501 | 6.02612 | 1355 ft | 124 kts | 98° |
| 2026-04-30 21:58 | 51.60469 | 6.03999 | 1185 ft | 124 kts | 98° |
| 2026-04-30 21:58 | 51.60433 | 6.05376 | 1038 ft | 123 kts | 96° |
| 2026-04-30 21:58 | 51.60423 | 6.06769 | 853 ft | 127 kts | 92° |
| 2026-04-30 21:59 | 51.60386 | 6.08191 | 747 ft | 128 kts | 95° |
| 2026-04-30 21:59 | 51.60349 | 6.09638 | 498 ft | 131 kts | 93° |
| 2026-04-30 21:59 | 51.60315 | 6.11105 | 334 ft | 131 kts | 91° |
| 2026-04-30 22:00 | 51.60255 | 6.13826 | 115 ft | 91 kts | 92° |
| 2026-04-30 22:00 | 51.60234 | 6.14788 | 109 ft | 27 kts | 92° |
| 2026-04-30 22:00 | 51.60226 | 6.15134 | 115 ft | 33 kts | 92° |
| 2026-04-30 22:01 | 51.60218 | 6.15419 | 115 ft | 16 kts | 104° |
| 2026-04-30 22:01 | 51.60156 | 6.15461 | 115 ft | 13 kts | 184° |
| 2026-04-30 22:01 | 51.60049 | 6.15454 | 117 ft | 13 kts | 199° |
| 2026-04-30 22:01 | 51.60033 | 6.15328 | 113 ft | 14 kts | 273° |
| 2026-04-30 22:02 | 51.60037 | 6.15139 | 112 ft | 20 kts | 272° |
| 2026-04-30 22:02 | 51.60042 | 6.14943 | 112 ft | 12 kts | 273° |
| 2026-04-30 22:02 | 51.60044 | 6.14884 | 112 ft | 0 kts | 273° |
| 2026-04-30 22:02 | 51.60044 | 6.14883 | 112 ft | 1 kts | 273° |
| 2026-04-30 22:03 | 51.60044 | 6.14851 | 111 ft | 5 kts | 269° |
| 2026-04-30 22:03 | 51.60026 | 6.14804 | 111 ft | 6 kts | 198° |
| 2026-04-30 22:03 | 51.60017 | 6.14802 | 111 ft | 0 kts | 189° |
| 2026-04-30 22:03 | 51.60007 | 6.14796 | 111 ft | 3 kts | 210° |
| 2026-04-30 22:04 | 51.59999 | 6.14753 | 110 ft | 5 kts | 267° |
| 2026-04-30 22:04 | 51.59999 | 6.14726 | 110 ft | 0 kts | 271° |